Архив погоды в Монды

Метеограмма Монды
Вторник, 19 Июня
Время местн. Темп Ветер Видим Явления Облачность нижн/средн/верх Атм. давл. Влжн Точка росы ВНГО R Сост. почвы Tg s
Напр Скр Прв ур.ст ур.м изм
05:00 +4.9° З,С-З 1 - 50 км - облачно с прояснениями 652 637 -0.5 97% +4.4° 2 км - - - -
02:00 +8° штиль 0 - более 50 км - ясно 652 637 +0.3 85% +5.6° более 2.5 км - - - -
Понедельник, 18 Июня
Время местн. Темп Ветер Видим Явления Облачность нижн/средн/верх Атм. давл. Влжн Точка росы ВНГО R Сост. почвы Tg s
Напр Скр Прв ур.ст ур.м изм
23:00 +13.2° З 1 - более 50 км - облачно с прояснениями 652 637 +1 74% +8.6° более 2.5 км - - - -
20:00 +20° В,Ю-В 5 10 более 50 км - переменная облачность 651 637 +0.5 47% +8.3° 2 км 0 - - -
17:00 +22.3° В,Ю-В 5 10 более 50 км - переменная облачность 651 636 -0.8 42% +8.8° 2 км - - - -
14:00 +22.3° В 4 - более 50 км - переменная облачность 651 637 -1.1 46% +10° 2 км - - - -
11:00 +18.5° В 1 - 50 км - переменная облачность 653 638 -1.1 58% +10.1° 2 км - - - -
08:00 +10.1° штиль 0 - 50 км - незначительная облачность 654 639 -0.1 64% +3.7° 2 км 0 Влажная (без луж) - -
05:00 +4.2° С,С-З 1 - 50 км - переменная облачность 654 638 +0.2 97% +3.7° 2 км - - - -
02:00 +7.4° штиль 0 - 50 км - переменная облачность 654 638 +0.8 95% +6.7° 2 км - - - -
Воскресенье, 17 Июня
Время местн. Темп Ветер Видим Явления Облачность нижн/средн/верх Атм. давл. Влжн Точка росы ВНГО R Сост. почвы Tg s
Напр Скр Прв ур.ст ур.м изм
23:00 +10.1° З 2 - 50 км - переменная облачность 653 638 +1.5 84% +7.6° 2 км - - - -
20:00 +16° В 4 - 50 км - незначительная облачность 651 636 +1 61% +8.6° 2 км 0 - - -
17:00 +18.4° В,Ю-В 8 11 50 км - переменная облачность 650 635 +0.3 55% +9.3° 2 км - - - -
14:00 +18.1° В 6 11 более 50 км - переменная облачность 650 635 -0.7 55% +8.9° 2 км - - - -
11:00 +16.6° В 4 - 50 км - преимущественно облачно 651 636 -0.5 64% +9.8° 2 км - - - -
08:00 +11.7° В,Ю-В 1 - 50 км - переменная облачность 651 636 -0.1 78% +8° 2 км 0 Влажная (без луж) - -
05:00 +8° штиль 0 - 50 км - облачно с прояснениями 651 636 0 95% +7.3° 1.5 км - - - -
02:00 +11.5° В,С-В 1 - 20 км - облачно 651 636 +0.2 83% +8.8° 1.5 км - - - -
Суббота, 16 Июня
Время местн. Темп Ветер Видим Явления Облачность нижн/средн/верх Атм. давл. Влжн Точка росы ВНГО R Сост. почвы Tg s
Напр Скр Прв ур.ст ур.м изм
23:00 +12.4° В 3 10 20 км - облачно 651 636 +0.9 80% +9° 1.5 км - - - -
20:00 +13.8° В,Ю-В 5 11 20 км - облачно 650 635 +0.4 75% +9.5° 1.5 км 0 - - -
17:00 +15.8° В 6 11 более 50 км - облачно 650 635 -0.8 66% +9.4° 1.5 км - - - -
14:00 +14.7° В 6 12 20 км - облачно 650 635 -0.3 75% +10.4° 1.5 км - - - -
11:00 +13° В 7 11 50 км - переменная облачность 651 636 -0.1 91% +11.5° 1.5 км - - - -
08:00 +11.7° штиль 0 - 10 км ливневый дождь облачно с прояснениями 651 636 +0.2 94% +10.7° 1.5 км 4 Влажная (без луж) +11° -
05:00 +11.2° штиль 0 - 10 км - облачно 651 636 0 97% +10.8° 1.5 км - - - -
02:00 +11.2° В 1 - 20 км осадки вдали станции {гроза} облачно 651 636 +0.4 95% +10.4° 1.5 км - - - -